createdAt,value
2022-11-24T00:01:40.333Z,99.90
2022-11-24T00:05:02.321Z,99.90
2022-11-24T00:08:24.324Z,99.90
2022-11-24T00:11:46.584Z,99.90
2022-11-24T00:15:09.102Z,99.90
2022-11-24T00:18:31.352Z,99.90
2022-11-24T00:21:53.366Z,99.90
2022-11-24T00:25:15.528Z,99.90
2022-11-24T00:28:39.018Z,99.90
2022-11-24T00:32:03.038Z,99.90
2022-11-24T00:35:25.073Z,99.90
2022-11-24T00:38:47.550Z,99.90
2022-11-24T00:42:09.545Z,99.90
2022-11-24T00:45:31.616Z,99.90
2022-11-24T00:48:54.288Z,99.90
2022-11-24T00:52:16.470Z,99.90
2022-11-24T00:55:38.443Z,99.90
2022-11-24T00:59:00.460Z,99.90
2022-11-24T01:02:22.555Z,99.90
2022-11-24T01:05:44.538Z,99.90
2022-11-24T01:09:06.535Z,99.90
2022-11-24T01:12:28.881Z,99.90
2022-11-24T01:15:50.954Z,99.90
2022-11-24T01:19:13.046Z,99.90
2022-11-24T01:22:35.251Z,99.90
2022-11-24T01:25:57.232Z,99.90
2022-11-24T01:29:19.240Z,99.90
2022-11-24T01:32:41.280Z,99.90
2022-11-24T01:36:04.354Z,99.90
2022-11-24T01:39:26.381Z,99.90
2022-11-24T01:42:53.477Z,99.90
2022-11-24T01:46:27.167Z,99.90
2022-11-24T01:49:54.177Z,99.90
2022-11-24T01:53:16.158Z,99.90
2022-11-24T01:56:41.915Z,99.90
2022-11-24T02:00:10.941Z,99.90
2022-11-24T02:03:38.639Z,99.90
2022-11-24T02:07:03.506Z,99.90
2022-11-24T02:10:25.608Z,99.90
2022-11-24T02:13:48.834Z,99.90
2022-11-24T02:17:10.890Z,99.90
2022-11-24T02:20:34.211Z,99.90
2022-11-24T02:24:28.494Z,99.90
2022-11-24T02:27:54.266Z,99.90
2022-11-24T02:31:16.542Z,99.90
2022-11-24T02:34:38.641Z,99.90
2022-11-24T02:38:00.633Z,99.90
2022-11-24T02:41:25.603Z,99.90
2022-11-24T02:44:52.645Z,99.90
2022-11-24T02:48:15.792Z,99.90
2022-11-24T02:51:37.730Z,99.90
2022-11-24T02:54:59.765Z,99.90
2022-11-24T02:58:22.136Z,99.90
2022-11-24T03:01:44.201Z,99.90
2022-11-24T03:05:06.962Z,99.90
2022-11-24T03:08:29.031Z,99.90
2022-11-24T03:11:50.991Z,99.90
2022-11-24T03:15:12.953Z,99.90
2022-11-24T03:18:34.867Z,99.90
2022-11-24T03:21:56.995Z,99.90
2022-11-24T03:25:19.568Z,99.90
2022-11-24T03:28:42.125Z,99.90
2022-11-24T03:32:04.450Z,99.90
2022-11-24T03:35:26.485Z,99.90
2022-11-24T03:38:48.502Z,99.90
2022-11-24T03:42:10.540Z,99.90
2022-11-24T03:45:47.808Z,99.90
2022-11-24T03:49:10.097Z,99.90
2022-11-24T03:52:32.047Z,99.90
2022-11-24T03:55:54.911Z,99.90
2022-11-24T03:59:17.176Z,99.90
2022-11-24T04:02:39.193Z,99.90
2022-11-24T04:06:01.216Z,99.90
2022-11-24T04:09:23.162Z,99.90
2022-11-24T04:12:45.120Z,99.90
2022-11-24T04:16:07.439Z,99.90
2022-11-24T04:19:29.510Z,99.90
2022-11-24T04:22:52.093Z,99.90
2022-11-24T04:26:14.765Z,99.90
2022-11-24T04:29:36.754Z,99.90
2022-11-24T04:32:59.236Z,99.90
2022-11-24T04:36:21.415Z,99.90
2022-11-24T04:39:43.965Z,99.90
2022-11-24T04:43:05.921Z,99.90
2022-11-24T04:46:27.972Z,99.90
2022-11-24T04:49:50.752Z,99.90
2022-11-24T04:53:13.660Z,99.90
2022-11-24T04:56:35.779Z,99.90
2022-11-24T04:59:57.833Z,99.90
2022-11-24T05:03:19.803Z,99.90
2022-11-24T05:06:42.301Z,99.90
2022-11-24T05:10:23.165Z,99.90
2022-11-24T05:13:46.291Z,99.90
2022-11-24T05:17:08.457Z,99.90
2022-11-24T05:20:30.406Z,99.90
2022-11-24T05:23:52.439Z,99.90
2022-11-24T05:27:14.403Z,99.90
2022-11-24T05:30:39.944Z,99.90
2022-11-24T05:34:01.966Z,99.90
2022-11-24T05:37:25.753Z,99.90
2022-11-24T05:40:48.022Z,99.90
2022-11-24T05:44:09.984Z,99.90
2022-11-24T05:47:32.346Z,99.90
2022-11-24T05:50:58.674Z,99.90
2022-11-24T05:54:20.674Z,99.90
2022-11-24T05:57:43.142Z,99.90
2022-11-24T06:01:08.180Z,99.90
2022-11-24T06:04:30.203Z,99.90
2022-11-24T06:07:52.552Z,99.90
2022-11-24T06:11:20.549Z,99.90
2022-11-24T06:14:42.592Z,99.90
2022-11-24T06:18:04.758Z,99.90
2022-11-24T06:21:26.777Z,99.90
2022-11-24T06:24:50.648Z,99.90
2022-11-24T06:28:12.632Z,99.90
2022-11-24T06:31:35.014Z,99.90
2022-11-24T06:35:00.041Z,99.90
2022-11-24T06:38:24.488Z,99.90
2022-11-24T06:41:50.300Z,99.90
2022-11-24T06:45:12.229Z,99.90
2022-11-24T06:48:34.319Z,99.90
2022-11-24T06:51:56.261Z,99.90
2022-11-24T06:55:18.249Z,99.90
2022-11-24T06:58:45.589Z,99.90
2022-11-24T07:02:08.809Z,99.90
2022-11-24T07:05:30.807Z,99.90
2022-11-24T07:08:53.229Z,99.90
2022-11-24T07:12:15.311Z,99.90
2022-11-24T07:15:37.306Z,99.90
2022-11-24T07:18:59.529Z,99.90
2022-11-24T07:22:21.544Z,99.90
2022-11-24T07:25:43.574Z,99.90
2022-11-24T07:29:05.691Z,99.90
2022-11-24T07:32:27.752Z,99.90
2022-11-24T07:35:49.871Z,99.90
2022-11-24T07:39:12.078Z,99.90
2022-11-24T07:42:34.388Z,99.90
2022-11-24T07:45:56.469Z,99.90
2022-11-24T07:49:19.003Z,99.90
2022-11-24T07:52:40.981Z,99.90
2022-11-24T07:56:05.596Z,99.90
2022-11-24T07:59:27.574Z,99.90
2022-11-24T08:02:49.555Z,99.90
2022-11-24T08:06:33.868Z,99.90
2022-11-24T08:09:54.540Z,99.90
2022-11-24T08:13:16.562Z,99.70
2022-11-24T08:16:39.504Z,99.70
2022-11-24T08:20:01.520Z,95.20
2022-11-24T08:23:23.586Z,97.80
2022-11-24T08:26:45.576Z,94.30
2022-11-24T08:30:08.323Z,90.80
2022-11-24T08:33:30.875Z,90.20
2022-11-24T08:36:52.883Z,85.40
2022-11-24T08:40:15.050Z,80.50
2022-11-24T08:43:37.436Z,78.40
2022-11-24T08:46:59.430Z,76.80
2022-11-24T08:50:23.178Z,73.70
2022-11-24T08:53:45.214Z,76.00
2022-11-24T08:57:07.254Z,75.30
2022-11-24T09:00:29.334Z,73.20
2022-11-24T09:03:52.232Z,74.20
2022-11-24T09:07:14.425Z,73.10
2022-11-24T09:10:36.942Z,67.20
2022-11-24T09:13:58.926Z,63.90
2022-11-24T09:17:20.943Z,63.30
2022-11-24T09:20:42.997Z,62.70
2022-11-24T09:24:07.457Z,68.80
2022-11-24T09:27:29.425Z,62.70
2022-11-24T09:30:51.450Z,72.20
2022-11-24T09:34:15.691Z,72.40
2022-11-24T09:37:37.711Z,66.60
2022-11-24T09:41:17.914Z,70.70
2022-11-24T09:45:07.198Z,73.40
2022-11-24T09:48:44.091Z,78.30
2022-11-24T09:52:12.880Z,78.70
2022-11-24T09:55:39.353Z,82.00
2022-11-24T09:59:26.378Z,79.40
2022-11-24T10:02:50.021Z,78.00
2022-11-24T10:06:19.622Z,79.70
2022-11-24T10:10:38.162Z,80.40
2022-11-24T10:14:26.905Z,76.60
2022-11-24T10:18:09.373Z,72.70
2022-11-24T10:21:52.264Z,72.20
2022-11-24T10:25:23.739Z,77.60
2022-11-24T10:28:56.204Z,81.30
2022-11-24T10:32:29.841Z,78.70
2022-11-24T10:35:55.022Z,81.80
2022-11-24T10:39:32.097Z,84.80
2022-11-24T10:42:54.244Z,81.70
2022-11-24T10:46:26.375Z,83.20
2022-11-24T10:50:22.108Z,86.20
2022-11-24T10:53:46.189Z,84.80
2022-11-24T10:57:08.386Z,87.80
2022-11-24T11:00:31.954Z,89.50
2022-11-24T11:03:56.559Z,92.30
2022-11-24T11:07:21.506Z,88.30
2022-11-24T11:10:44.788Z,90.00
2022-11-24T11:14:10.048Z,87.50
2022-11-24T11:17:38.427Z,91.20
2022-11-24T11:21:02.540Z,91.90
2022-11-24T11:24:24.990Z,91.20
2022-11-24T11:27:48.811Z,94.10
2022-11-24T11:31:22.101Z,99.90
2022-11-24T11:34:45.269Z,94.80
2022-11-24T11:38:07.877Z,97.10
2022-11-24T11:41:43.512Z,96.40
2022-11-24T11:45:05.839Z,98.10
2022-11-24T11:48:42.265Z,98.60
2022-11-24T11:52:23.883Z,97.80
2022-11-24T11:56:09.973Z,98.90
2022-11-24T11:59:46.791Z,99.90
2022-11-24T12:03:34.845Z,99.90
2022-11-24T12:07:08.820Z,99.90
2022-11-24T12:10:50.852Z,99.90
2022-11-24T12:14:47.012Z,99.90
2022-11-24T12:22:18.067Z,99.20
2022-11-24T12:25:46.451Z,98.70
2022-11-24T12:29:24.154Z,99.60
2022-11-24T12:33:18.198Z,99.90
2022-11-24T12:37:03.866Z,99.90
2022-11-24T12:40:58.077Z,99.90
2022-11-24T12:45:07.574Z,99.10
2022-11-24T12:48:51.074Z,99.90
2022-11-24T12:52:18.932Z,98.10
2022-11-24T12:55:42.344Z,98.00
2022-11-24T12:59:39.790Z,99.60
2022-11-24T13:03:05.014Z,97.50
2022-11-24T13:06:49.315Z,95.90
2022-11-24T13:14:36.378Z,95.40
2022-11-24T13:21:45.580Z,92.10
2022-11-24T13:25:20.264Z,94.00
2022-11-24T13:29:18.006Z,94.50
2022-11-24T13:32:46.757Z,94.70
2022-11-24T13:36:11.682Z,94.10
2022-11-24T13:39:54.626Z,91.40
2022-11-24T13:43:16.559Z,91.80
2022-11-24T13:47:31.961Z,95.10
2022-11-24T13:50:54.181Z,99.90
2022-11-24T13:54:16.182Z,99.90
2022-11-24T13:57:49.863Z,99.80
2022-11-24T14:01:11.947Z,99.70
2022-11-24T14:04:39.538Z,99.80
2022-11-24T14:08:02.604Z,99.90
2022-11-24T14:11:26.255Z,99.90
2022-11-24T14:14:50.488Z,99.90
2022-11-24T14:18:21.672Z,99.90
2022-11-24T14:21:45.120Z,99.90
2022-11-24T14:25:21.307Z,99.90
2022-11-24T14:28:45.493Z,99.90
2022-11-24T14:32:16.872Z,99.90
2022-11-24T14:35:53.113Z,99.90
2022-11-24T14:39:20.585Z,99.90
2022-11-24T14:42:51.222Z,99.90
2022-11-24T14:46:20.400Z,99.90
2022-11-24T14:49:43.541Z,99.90
2022-11-24T14:53:14.083Z,99.90
2022-11-24T14:56:40.171Z,99.90
2022-11-24T15:00:19.602Z,99.90
2022-11-24T15:03:41.723Z,99.90
2022-11-24T15:07:26.480Z,99.90
2022-11-24T15:10:48.888Z,99.90
2022-11-24T15:15:01.350Z,99.90
2022-11-24T15:19:00.260Z,99.90
2022-11-24T15:22:36.983Z,99.90
2022-11-24T15:26:18.853Z,99.90
2022-11-24T15:29:40.882Z,99.90
2022-11-24T15:33:03.289Z,99.90
2022-11-24T15:36:25.228Z,99.90
2022-11-24T15:39:47.408Z,99.90
2022-11-24T15:43:21.420Z,99.90
2022-11-24T15:46:43.409Z,99.90
2022-11-24T15:50:06.094Z,99.90
2022-11-24T15:53:44.253Z,99.90
2022-11-24T15:57:06.174Z,99.90
2022-11-24T16:00:28.326Z,99.90
2022-11-24T16:03:50.415Z,99.90
2022-11-24T16:07:12.940Z,99.90
2022-11-24T16:10:36.404Z,99.90
2022-11-24T16:13:58.455Z,99.90
2022-11-24T16:17:20.482Z,99.90
2022-11-24T16:20:42.502Z,99.90
2022-11-24T16:24:04.624Z,99.90
2022-11-24T16:27:26.605Z,99.90
2022-11-24T16:30:50.155Z,99.90
2022-11-24T16:34:12.087Z,99.90
2022-11-24T16:37:34.252Z,99.90
2022-11-24T16:40:56.934Z,99.90
2022-11-24T16:44:18.996Z,99.90
2022-11-24T16:47:43.020Z,99.90
2022-11-24T16:51:10.114Z,99.90
2022-11-24T16:54:32.451Z,99.90
2022-11-24T16:57:54.744Z,99.90
2022-11-24T17:01:16.768Z,99.90
2022-11-24T17:04:38.891Z,99.90
2022-11-24T17:08:00.874Z,99.90
2022-11-24T17:11:24.637Z,99.90
2022-11-24T17:15:03.389Z,99.90
2022-11-24T17:18:28.581Z,99.90
2022-11-24T17:21:50.623Z,99.90
2022-11-24T17:25:13.073Z,99.90
2022-11-24T17:28:36.088Z,99.90
2022-11-24T17:31:58.200Z,99.90
2022-11-24T17:35:20.312Z,99.90
2022-11-24T17:38:42.536Z,99.90
2022-11-24T17:42:04.707Z,99.90
2022-11-24T17:45:28.244Z,99.90
2022-11-24T17:48:50.605Z,99.90
2022-11-24T17:52:12.581Z,99.90
2022-11-24T17:55:34.565Z,99.90
2022-11-24T17:59:00.962Z,99.90
2022-11-24T18:02:23.048Z,99.90
2022-11-24T18:05:45.218Z,99.90
2022-11-24T18:09:07.325Z,99.90
2022-11-24T18:12:29.864Z,99.90
2022-11-24T18:15:55.972Z,99.90
2022-11-24T18:19:18.742Z,99.90
2022-11-24T18:23:04.433Z,99.90
2022-11-24T18:26:23.238Z,99.90
2022-11-24T18:29:46.415Z,99.90
2022-11-24T18:33:10.161Z,99.90
2022-11-24T18:36:33.595Z,99.90
2022-11-24T18:39:55.699Z,99.90
2022-11-24T18:43:18.103Z,99.90
2022-11-24T18:46:40.541Z,99.90
2022-11-24T18:50:02.805Z,99.90
2022-11-24T18:53:28.241Z,99.90
2022-11-24T18:56:50.400Z,99.90
2022-11-24T19:00:13.501Z,99.90
2022-11-24T19:03:48.635Z,99.90
2022-11-24T19:07:12.227Z,99.90
2022-11-24T19:10:39.783Z,99.90
2022-11-24T19:14:07.751Z,99.90
2022-11-24T19:17:30.521Z,99.90
2022-11-24T19:20:53.362Z,99.90
2022-11-24T19:24:16.184Z,99.90
2022-11-24T19:27:38.446Z,99.90
2022-11-24T19:31:05.656Z,99.90
2022-11-24T19:34:27.851Z,99.90
2022-11-24T19:37:50.230Z,99.90
2022-11-24T19:41:14.338Z,99.90
2022-11-24T19:44:36.709Z,99.90
2022-11-24T19:47:59.235Z,99.90
2022-11-24T19:51:27.013Z,99.90
2022-11-24T19:54:50.155Z,99.90
2022-11-24T19:58:12.559Z,99.90
2022-11-24T20:01:39.962Z,99.90
2022-11-24T20:05:02.206Z,99.90
2022-11-24T20:08:24.469Z,99.90
2022-11-24T20:11:46.945Z,99.90
2022-11-24T20:15:09.972Z,99.90
2022-11-24T20:18:37.542Z,99.90
2022-11-24T20:22:03.988Z,99.90
2022-11-24T20:25:26.663Z,99.90
2022-11-24T20:28:49.325Z,99.90
2022-11-24T20:32:17.755Z,99.90
2022-11-24T20:35:39.963Z,99.90
2022-11-24T20:39:16.058Z,99.90
2022-11-24T20:42:38.401Z,99.90
2022-11-24T20:46:12.496Z,99.90
2022-11-24T20:49:34.910Z,99.90
2022-11-24T20:52:57.257Z,99.90
2022-11-24T20:56:25.791Z,99.90
2022-11-24T20:59:48.300Z,99.90
2022-11-24T21:03:10.533Z,99.90
2022-11-24T21:06:32.641Z,99.90
2022-11-24T21:09:55.191Z,99.90
2022-11-24T21:13:17.706Z,99.90
2022-11-24T21:16:42.246Z,99.90
2022-11-24T21:20:05.021Z,99.90
2022-11-24T21:23:28.350Z,99.90
2022-11-24T21:26:53.186Z,99.90
2022-11-24T21:30:16.254Z,99.90
2022-11-24T21:33:43.644Z,99.90
2022-11-24T21:37:05.833Z,99.90
2022-11-24T21:40:30.769Z,99.90
2022-11-24T21:43:56.183Z,99.90
2022-11-24T21:47:21.567Z,99.90
2022-11-24T21:50:43.895Z,99.90
2022-11-24T21:54:06.276Z,99.90
2022-11-24T21:57:28.861Z,99.90
2022-11-24T22:00:51.105Z,99.90
2022-11-24T22:04:13.112Z,99.90
2022-11-24T22:07:35.208Z,99.90
2022-11-24T22:11:03.268Z,99.90
2022-11-24T22:14:25.367Z,99.90
2022-11-24T22:17:47.308Z,99.90
2022-11-24T22:21:12.917Z,99.90
2022-11-24T22:24:34.911Z,99.90
2022-11-24T22:27:58.306Z,99.90
2022-11-24T22:31:28.761Z,99.90
2022-11-24T22:34:50.921Z,99.90
2022-11-24T22:38:12.864Z,99.90
2022-11-24T22:41:35.946Z,99.90
2022-11-24T22:44:57.915Z,99.90
2022-11-24T22:48:19.881Z,99.90
2022-11-24T22:51:42.064Z,99.90
2022-11-24T22:55:04.226Z,99.90
2022-11-24T22:58:26.218Z,99.90
2022-11-24T23:01:48.165Z,99.90
2022-11-24T23:05:10.367Z,99.90
2022-11-24T23:08:34.228Z,99.90
2022-11-24T23:11:56.224Z,99.90
2022-11-24T23:15:18.276Z,99.90
2022-11-24T23:18:41.153Z,99.90
2022-11-24T23:22:03.133Z,99.90
2022-11-24T23:25:25.111Z,99.90
2022-11-24T23:28:47.719Z,99.90
2022-11-24T23:32:09.723Z,99.90
2022-11-24T23:35:32.918Z,99.90
2022-11-24T23:38:54.984Z,99.90
2022-11-24T23:42:16.978Z,99.90
2022-11-24T23:45:38.947Z,99.90
2022-11-24T23:49:01.072Z,99.90
2022-11-24T23:52:23.115Z,99.90
2022-11-24T23:55:55.844Z,99.90
2022-11-24T23:59:18.891Z,99.90
